createdAt,value
2023-02-14T00:01:23.361Z,101842.50
2023-02-14T00:03:50.631Z,101853.47
2023-02-14T00:06:18.385Z,101844.38
2023-02-14T00:08:45.728Z,101851.69
2023-02-14T00:11:13.728Z,101847.78
2023-02-14T00:14:01.051Z,101851.16
2023-02-14T00:16:28.672Z,101854.06
2023-02-14T00:19:05.390Z,101863.13
2023-02-14T00:21:38.428Z,101842.50
2023-02-14T00:24:11.873Z,101852.50
2023-02-14T00:26:40.067Z,101857.50
2023-02-14T00:29:20.953Z,101869.16
2023-02-14T00:31:51.266Z,101855.47
2023-02-14T00:34:19.480Z,101863.47
2023-02-14T00:36:47.914Z,101862.91
2023-02-14T00:39:17.837Z,101862.69
2023-02-14T00:41:45.809Z,101852.16
2023-02-14T00:44:13.989Z,101857.28
2023-02-14T00:46:41.858Z,101865.47
2023-02-14T00:49:09.555Z,101861.91
2023-02-14T00:51:39.478Z,101880.03
2023-02-14T00:54:06.892Z,101872.69
2023-02-14T00:56:34.411Z,101876.69
2023-02-14T00:59:01.999Z,101880.75
2023-02-14T01:01:29.675Z,101880.25
2023-02-14T01:03:58.967Z,101874.06
2023-02-14T01:06:26.619Z,101861.63
2023-02-14T01:08:53.934Z,101867.88
2023-02-14T01:11:23.889Z,101884.88
2023-02-14T01:13:55.957Z,101900.47
2023-02-14T01:16:26.365Z,101887.84
2023-02-14T01:18:55.904Z,101882.31
2023-02-14T01:21:29.664Z,101889.66
2023-02-14T01:23:59.506Z,101882.00
2023-02-14T01:26:28.813Z,101894.56
2023-02-14T01:28:56.924Z,101901.03
2023-02-14T01:31:27.838Z,101891.94
2023-02-14T01:33:58.131Z,101898.66
2023-02-14T01:36:28.987Z,101884.88
2023-02-14T01:38:59.902Z,101893.31
2023-02-14T01:41:30.048Z,101891.38
2023-02-14T01:44:06.073Z,101901.63
2023-02-14T01:46:38.072Z,101896.00
2023-02-14T01:49:23.576Z,101905.94
2023-02-14T01:52:03.862Z,101895.28
2023-02-14T01:54:35.789Z,101885.03
2023-02-14T01:57:08.857Z,101887.34
2023-02-14T01:59:45.910Z,101885.91
2023-02-14T02:02:13.693Z,101901.69
2023-02-14T02:04:46.642Z,101880.97
2023-02-14T02:07:23.723Z,101892.50
2023-02-14T02:10:00.446Z,101898.56
2023-02-14T02:12:30.692Z,101895.63
2023-02-14T02:14:59.934Z,101900.91
2023-02-14T02:17:30.469Z,101893.56
2023-02-14T02:20:19.245Z,101888.75
2023-02-14T02:22:52.863Z,101893.97
2023-02-14T02:25:48.266Z,101897.66
2023-02-14T02:28:40.898Z,101900.47
2023-02-14T02:31:18.940Z,101897.28
2023-02-14T02:34:11.514Z,101893.47
2023-02-14T02:36:57.371Z,101894.69
2023-02-14T02:39:44.677Z,101898.66
2023-02-14T02:42:24.256Z,101901.53
2023-02-14T02:45:02.414Z,101912.44
2023-02-14T02:47:42.825Z,101910.69
2023-02-14T02:50:41.668Z,101913.31
2023-02-14T02:53:18.383Z,101932.72
2023-02-14T02:56:20.001Z,101932.47
2023-02-14T02:58:58.796Z,101934.00
2023-02-14T03:01:32.716Z,101925.72
2023-02-14T03:04:22.522Z,101925.94
2023-02-14T03:06:51.617Z,101915.16
2023-02-14T03:09:27.991Z,101929.66
2023-02-14T03:12:12.609Z,101935.66
2023-02-14T03:14:52.129Z,101949.78
2023-02-14T03:17:30.476Z,101938.03
2023-02-14T03:20:16.929Z,101917.75
2023-02-14T03:22:56.313Z,101920.66
2023-02-14T03:25:23.516Z,101942.75
2023-02-14T03:27:59.716Z,101923.47
2023-02-14T03:30:54.584Z,101918.22
2023-02-14T03:33:37.864Z,101936.13
2023-02-14T03:36:12.761Z,101941.28
2023-02-14T03:38:52.547Z,101938.25
2023-02-14T03:41:26.187Z,101937.59
2023-02-14T03:43:57.930Z,101941.72
2023-02-14T03:46:52.000Z,101936.69
2023-02-14T03:49:23.921Z,101940.38
2023-02-14T03:51:55.067Z,101940.84
2023-02-14T03:54:25.804Z,101940.75
2023-02-14T03:57:03.093Z,101938.09
2023-02-14T03:59:31.156Z,101960.75
2023-02-14T04:02:10.670Z,101956.00
2023-02-14T04:04:43.535Z,101941.66
2023-02-14T04:07:13.873Z,101942.28
2023-02-14T04:09:41.664Z,101953.91
2023-02-14T04:12:09.429Z,101953.63
2023-02-14T04:14:37.045Z,101949.06
2023-02-14T04:17:23.923Z,101924.00
2023-02-14T04:19:51.636Z,101934.00
2023-02-14T04:22:19.157Z,101952.31
2023-02-14T04:24:46.766Z,101946.13
2023-02-14T04:27:14.409Z,101943.09
2023-02-14T04:29:42.898Z,101938.97
2023-02-14T04:32:12.829Z,101946.84
2023-02-14T04:34:40.804Z,101947.91
2023-02-14T04:37:08.647Z,101935.97
2023-02-14T04:39:36.339Z,101933.84
2023-02-14T04:42:04.766Z,101923.09
2023-02-14T04:44:34.131Z,101943.53
2023-02-14T04:47:02.062Z,101933.63
2023-02-14T04:49:29.643Z,101924.56
2023-02-14T04:51:57.752Z,101928.38
2023-02-14T04:54:25.939Z,101939.53
2023-02-14T04:56:53.157Z,101927.94
2023-02-14T04:59:20.872Z,101930.91
2023-02-14T05:01:48.412Z,101921.81
2023-02-14T05:04:15.989Z,101921.47
2023-02-14T05:06:43.212Z,101934.50
2023-02-14T05:09:10.934Z,101923.03
2023-02-14T05:11:38.211Z,101940.84
2023-02-14T05:14:05.889Z,101935.50
2023-02-14T05:16:33.288Z,101934.75
2023-02-14T05:19:00.882Z,101940.41
2023-02-14T05:21:28.765Z,101945.09
2023-02-14T05:23:56.384Z,101932.59
2023-02-14T05:26:23.645Z,101942.13
2023-02-14T05:28:51.189Z,101935.88
2023-02-14T05:31:18.539Z,101923.16
2023-02-14T05:33:46.185Z,101928.69
2023-02-14T05:36:13.677Z,101938.78
2023-02-14T05:38:41.209Z,101946.09
2023-02-14T05:41:08.621Z,101952.66
2023-02-14T05:43:36.180Z,101940.25
2023-02-14T05:46:03.536Z,101945.44
2023-02-14T05:48:31.226Z,101939.44
2023-02-14T05:51:03.063Z,101967.91
2023-02-14T05:53:30.928Z,101966.94
2023-02-14T05:55:58.470Z,101973.59
2023-02-14T05:58:26.059Z,101952.91
2023-02-14T06:00:53.322Z,101966.69
2023-02-14T06:03:20.864Z,101977.00
2023-02-14T06:05:48.112Z,101985.00
2023-02-14T06:08:15.799Z,101978.66
2023-02-14T06:10:43.167Z,101970.72
2023-02-14T06:13:10.906Z,101974.00
2023-02-14T06:15:38.697Z,101982.47
2023-02-14T06:18:06.693Z,101985.09
2023-02-14T06:20:34.286Z,101979.94
2023-02-14T06:23:02.290Z,101998.38
2023-02-14T06:25:29.590Z,102000.00
2023-02-14T06:27:58.804Z,102006.13
2023-02-14T06:30:26.893Z,101997.63
2023-02-14T06:32:54.905Z,102013.41
2023-02-14T06:35:22.548Z,102001.59
2023-02-14T06:37:50.388Z,102005.41
2023-02-14T06:40:19.806Z,102001.31
2023-02-14T06:42:47.713Z,101992.19
2023-02-14T06:45:14.987Z,101994.81
2023-02-14T06:47:42.704Z,102028.75
2023-02-14T06:50:11.831Z,102024.44
2023-02-14T06:52:39.892Z,102005.50
2023-02-14T06:55:07.657Z,102004.75
2023-02-14T06:57:35.235Z,102021.75
2023-02-14T07:00:02.824Z,102028.00
2023-02-14T07:02:30.982Z,102020.22
2023-02-14T07:04:58.394Z,102031.84
2023-02-14T07:07:25.957Z,102021.78
2023-02-14T07:09:53.203Z,102048.41
2023-02-14T07:12:20.859Z,102054.44
2023-02-14T07:14:48.085Z,102042.56
2023-02-14T07:17:15.649Z,102051.25
2023-02-14T07:19:44.091Z,102038.81
2023-02-14T07:22:11.638Z,102042.91
2023-02-14T07:24:38.999Z,102045.22
2023-02-14T07:27:06.532Z,102047.09
2023-02-14T07:29:33.837Z,102042.41
2023-02-14T07:32:02.026Z,102044.00
2023-02-14T07:34:29.385Z,102049.59
2023-02-14T07:36:57.311Z,102051.84
2023-02-14T07:39:24.692Z,102058.38
2023-02-14T07:41:52.248Z,102054.91
2023-02-14T07:44:20.354Z,102062.78
2023-02-14T07:46:47.895Z,102060.22
2023-02-14T07:49:15.446Z,102066.97
2023-02-14T07:51:43.394Z,102075.38
2023-02-14T07:54:10.652Z,102076.34
2023-02-14T07:56:38.228Z,102069.66
2023-02-14T07:59:05.494Z,102062.78
2023-02-14T08:01:33.161Z,102058.63
2023-02-14T08:04:00.429Z,102056.81
2023-02-14T08:06:28.071Z,102075.03
2023-02-14T08:08:55.444Z,102061.88
2023-02-14T08:11:41.610Z,102077.97
2023-02-14T08:14:08.915Z,102074.94
2023-02-14T08:16:38.224Z,102086.38
2023-02-14T08:19:05.641Z,102090.13
2023-02-14T08:21:33.221Z,102077.50
2023-02-14T08:24:00.569Z,102092.31
2023-02-14T08:26:28.270Z,102098.06
2023-02-14T08:28:55.524Z,102092.88
2023-02-14T08:31:35.783Z,102084.31
2023-02-14T08:34:07.185Z,102090.47
2023-02-14T08:36:35.167Z,102097.25
2023-02-14T08:39:04.764Z,102111.38
2023-02-14T08:41:33.215Z,102103.75
2023-02-14T08:44:00.790Z,102104.44
2023-02-14T08:46:29.209Z,102099.59
2023-02-14T08:48:56.709Z,102095.63
2023-02-14T08:51:25.923Z,102092.81
2023-02-14T08:53:53.314Z,102084.97
2023-02-14T08:56:22.808Z,102100.16
2023-02-14T08:58:54.617Z,102080.44
2023-02-14T09:01:22.404Z,102092.06
2023-02-14T09:03:49.864Z,102101.47
2023-02-14T09:06:17.907Z,102102.53
2023-02-14T09:08:45.936Z,102096.56
2023-02-14T09:11:22.460Z,102088.16
2023-02-14T09:13:53.301Z,102099.69
2023-02-14T09:16:21.945Z,102086.44
2023-02-14T09:18:49.727Z,102080.56
2023-02-14T09:21:20.286Z,102100.06
2023-02-14T09:23:47.584Z,102106.00
2023-02-14T09:26:16.317Z,102106.94
2023-02-14T09:28:44.400Z,102092.19
2023-02-14T09:31:18.092Z,102092.72
2023-02-14T09:34:05.359Z,102099.28
2023-02-14T09:36:51.873Z,102096.91
2023-02-14T09:39:19.442Z,102098.06
2023-02-14T09:42:15.457Z,102104.28
2023-02-14T09:44:52.566Z,102107.25
2023-02-14T09:47:41.846Z,102111.06
2023-02-14T09:50:49.814Z,102107.16
2023-02-14T09:53:43.429Z,102109.31
2023-02-14T09:56:31.058Z,102101.56
2023-02-14T09:59:15.944Z,102123.00
2023-02-14T10:01:49.621Z,102108.97
2023-02-14T10:04:32.330Z,102116.84
2023-02-14T10:07:24.590Z,102118.25
2023-02-14T10:10:14.008Z,102117.88
2023-02-14T10:12:48.739Z,102116.56
2023-02-14T10:15:21.989Z,102125.63
2023-02-14T10:18:32.481Z,102119.59
2023-02-14T10:21:03.052Z,102113.44
2023-02-14T10:23:41.307Z,102112.72
2023-02-14T10:26:31.913Z,102118.25
2023-02-14T10:28:59.294Z,102122.34
2023-02-14T10:31:29.962Z,102107.75
2023-02-14T10:34:08.514Z,102106.56
2023-02-14T10:37:05.402Z,102099.72
2023-02-14T10:40:01.974Z,102111.44
2023-02-14T10:43:06.949Z,102109.34
2023-02-14T10:46:03.751Z,102116.63
2023-02-14T10:48:46.506Z,102110.88
2023-02-14T10:51:23.350Z,102111.06
2023-02-14T10:54:15.067Z,102109.19
2023-02-14T10:56:45.910Z,102102.97
2023-02-14T10:59:26.092Z,102117.41
2023-02-14T11:01:55.860Z,102111.38
2023-02-14T11:04:25.586Z,102110.47
2023-02-14T11:06:53.822Z,102104.19
2023-02-14T11:09:21.732Z,102114.25
2023-02-14T11:11:53.554Z,102100.53
2023-02-14T11:14:35.919Z,102107.75
2023-02-14T11:17:31.725Z,102119.84
2023-02-14T11:20:20.613Z,102120.31
2023-02-14T11:22:47.928Z,102112.50
2023-02-14T11:25:27.013Z,102104.84
2023-02-14T11:27:57.188Z,102110.03
2023-02-14T11:30:43.192Z,102101.28
2023-02-14T11:33:22.080Z,102090.59
2023-02-14T11:35:53.524Z,102086.38
2023-02-14T11:38:26.718Z,102082.16
2023-02-14T11:40:56.694Z,102072.97
2023-02-14T11:44:09.542Z,102071.25
2023-02-14T11:46:52.207Z,102082.16
2023-02-14T11:49:30.814Z,102066.16
2023-02-14T11:52:10.318Z,102079.22
2023-02-14T11:54:40.708Z,102072.34
2023-02-14T11:57:33.500Z,102075.91
2023-02-14T12:00:05.008Z,102074.59
2023-02-14T12:02:53.289Z,102074.88
2023-02-14T12:05:20.819Z,102075.66
2023-02-14T12:07:52.138Z,102076.00
2023-02-14T12:10:25.371Z,102068.91
2023-02-14T12:13:28.397Z,102067.41
2023-02-14T12:15:58.102Z,102072.84
2023-02-14T12:18:45.992Z,102063.88
2023-02-14T12:21:35.547Z,102064.00
2023-02-14T12:24:11.770Z,102062.06
2023-02-14T12:26:46.910Z,102069.91
2023-02-14T12:29:36.252Z,102058.03
2023-02-14T12:32:19.863Z,102066.16
2023-02-14T12:34:48.552Z,102065.06
2023-02-14T12:37:34.022Z,102067.28
2023-02-14T12:40:09.302Z,102067.13
2023-02-14T12:42:48.592Z,102061.88
2023-02-14T12:45:19.926Z,102066.63
2023-02-14T12:48:25.395Z,102065.19
2023-02-14T12:51:16.946Z,102062.25
2023-02-14T12:54:05.635Z,102053.06
2023-02-14T12:56:48.257Z,102066.13
2023-02-14T12:59:47.355Z,102061.59
2023-02-14T13:02:36.742Z,102055.41
2023-02-14T13:05:16.450Z,102068.03
2023-02-14T13:08:02.619Z,102055.41
2023-02-14T13:10:35.802Z,102058.69
2023-02-14T13:16:38.499Z,102059.44
2023-02-14T13:19:33.818Z,102058.28
2023-02-14T13:22:02.743Z,102039.66
2023-02-14T13:24:39.616Z,102040.97
2023-02-14T13:27:12.493Z,102044.53
2023-02-14T13:29:50.636Z,102036.34
2023-02-14T13:32:22.846Z,102040.59
2023-02-14T13:34:51.396Z,102039.53
2023-02-14T13:37:22.537Z,102024.72
2023-02-14T13:40:17.392Z,102037.88
2023-02-14T13:42:47.878Z,102039.31
2023-02-14T13:45:32.623Z,102036.91
2023-02-14T13:48:07.128Z,102040.50
2023-02-14T13:50:48.720Z,102037.25
2023-02-14T13:53:42.249Z,102035.59
2023-02-14T13:56:13.245Z,102039.38
2023-02-14T13:59:04.669Z,102036.63
2023-02-14T14:01:36.015Z,102037.66
2023-02-14T14:04:39.203Z,102042.03
2023-02-14T14:07:18.544Z,102031.66
2023-02-14T14:09:45.784Z,102033.63
2023-02-14T14:12:40.750Z,102044.09
2023-02-14T14:15:10.703Z,102034.88
2023-02-14T14:17:46.572Z,102034.53
2023-02-14T14:20:16.857Z,102038.97
2023-02-14T14:22:53.266Z,102039.59
2023-02-14T14:25:30.972Z,102045.06
2023-02-14T14:27:59.002Z,102042.56
2023-02-14T14:30:33.566Z,102032.41
2023-02-14T14:33:23.959Z,102047.47
2023-02-14T14:35:59.779Z,102055.13
2023-02-14T14:38:29.277Z,102039.66
2023-02-14T14:40:57.822Z,102042.78
2023-02-14T14:43:31.485Z,102044.44
2023-02-14T14:46:02.302Z,102055.78
2023-02-14T14:48:37.343Z,102043.13
2023-02-14T14:51:07.579Z,102047.09
2023-02-14T14:53:48.938Z,102054.31
2023-02-14T14:56:27.076Z,102047.66
2023-02-14T14:58:55.083Z,102046.47
2023-02-14T15:01:38.680Z,102037.03
2023-02-14T15:04:12.549Z,102043.34
2023-02-14T15:06:41.045Z,102045.41
2023-02-14T15:09:32.034Z,102040.56
2023-02-14T15:12:22.037Z,102048.41
2023-02-14T15:14:54.801Z,102039.38
2023-02-14T15:17:26.997Z,102044.78
2023-02-14T15:20:05.708Z,102048.38
2023-02-14T15:22:52.892Z,102045.09
2023-02-14T15:25:34.979Z,102054.31
2023-02-14T15:28:02.874Z,102048.00
2023-02-14T15:30:37.999Z,102034.81
2023-02-14T15:33:07.537Z,102048.34
2023-02-14T15:35:39.387Z,102047.28
2023-02-14T15:38:07.418Z,102047.34
2023-02-14T15:40:36.033Z,102043.16
2023-02-14T15:43:18.328Z,102043.16
2023-02-14T15:45:49.094Z,102050.00
2023-02-14T15:48:19.685Z,102048.91
2023-02-14T15:50:51.453Z,102052.13
2023-02-14T15:53:45.412Z,102050.75
2023-02-14T15:56:19.433Z,102046.16
2023-02-14T15:58:48.120Z,102034.50
2023-02-14T16:01:20.957Z,102049.81
2023-02-14T16:03:52.459Z,102052.56
2023-02-14T16:06:35.578Z,102049.09
2023-02-14T16:09:05.784Z,102053.84
2023-02-14T16:11:37.189Z,102047.91
2023-02-14T16:14:36.556Z,102045.66
2023-02-14T16:17:07.917Z,102041.81
2023-02-14T16:19:41.615Z,102060.22
2023-02-14T16:22:23.893Z,102051.66
2023-02-14T16:24:51.159Z,102060.09
2023-02-14T16:27:18.759Z,102051.91
2023-02-14T16:29:46.057Z,102057.44
2023-02-14T16:32:20.594Z,102061.31
2023-02-14T16:34:48.545Z,102058.91
2023-02-14T16:37:21.072Z,102069.72
2023-02-14T16:39:49.930Z,102058.06
2023-02-14T16:42:18.706Z,102057.94
2023-02-14T16:44:46.926Z,102056.59
2023-02-14T16:47:16.485Z,102065.03
2023-02-14T16:49:44.195Z,102061.41
2023-02-14T16:52:17.762Z,102067.66
2023-02-14T16:54:45.310Z,102067.72
2023-02-14T16:57:23.769Z,102066.53
2023-02-14T16:59:51.391Z,102067.50
2023-02-14T17:02:19.607Z,102065.03
2023-02-14T17:04:47.098Z,102059.19
2023-02-14T17:07:16.118Z,102054.41
2023-02-14T17:09:48.371Z,102068.38
2023-02-14T17:12:21.038Z,102068.38
2023-02-14T17:14:51.570Z,102073.19
2023-02-14T17:17:19.409Z,102064.03
2023-02-14T17:19:46.725Z,102058.88
2023-02-14T17:22:14.845Z,102069.81
2023-02-14T17:24:42.170Z,102075.63
2023-02-14T17:27:10.015Z,102080.06
2023-02-14T17:29:37.282Z,102070.41
2023-02-14T17:32:05.199Z,102071.41
2023-02-14T17:34:33.357Z,102079.34
2023-02-14T17:37:00.965Z,102074.22
2023-02-14T17:39:28.541Z,102079.81
2023-02-14T17:41:56.923Z,102082.13
2023-02-14T17:44:24.366Z,102080.50
2023-02-14T17:46:54.692Z,102068.84
2023-02-14T17:49:22.007Z,102070.72
2023-02-14T17:51:49.567Z,102070.66
2023-02-14T17:54:16.823Z,102080.16
2023-02-14T17:56:44.369Z,102085.25
2023-02-14T17:59:11.668Z,102091.13
2023-02-14T18:01:39.352Z,102077.84
2023-02-14T18:04:06.675Z,102083.03
2023-02-14T18:06:34.536Z,102075.31
2023-02-14T18:09:06.266Z,102089.81
2023-02-14T18:11:33.801Z,102091.75
2023-02-14T18:14:01.868Z,102083.97
2023-02-14T18:16:29.567Z,102090.38
2023-02-14T18:18:56.897Z,102089.13
2023-02-14T18:21:25.444Z,102096.16
2023-02-14T18:23:52.730Z,102096.63
2023-02-14T18:26:20.590Z,102097.75
2023-02-14T18:28:48.413Z,102104.69
2023-02-14T18:31:18.184Z,102080.44
2023-02-14T18:33:49.336Z,102102.09
2023-02-14T18:36:19.473Z,102085.91
2023-02-14T18:38:48.519Z,102098.03
2023-02-14T18:41:18.018Z,102085.34
2023-02-14T18:43:45.579Z,102097.31
2023-02-14T18:46:21.681Z,102089.25
2023-02-14T18:48:49.607Z,102094.53
2023-02-14T18:51:26.464Z,102096.03
2023-02-14T18:53:55.547Z,102071.31
2023-02-14T18:56:34.314Z,102081.00
2023-02-14T18:59:07.469Z,102079.94
2023-02-14T19:01:37.923Z,102084.19
2023-02-14T19:04:08.739Z,102080.50
2023-02-14T19:06:36.886Z,102084.47
2023-02-14T19:09:08.902Z,102070.88
2023-02-14T19:11:36.627Z,102065.47
2023-02-14T19:14:09.889Z,102056.69
2023-02-14T19:16:50.140Z,102069.31
2023-02-14T19:19:18.124Z,102056.22
2023-02-14T19:21:46.219Z,102049.03
2023-02-14T19:24:16.451Z,102052.69
2023-02-14T19:26:44.270Z,102060.47
2023-02-14T19:29:17.072Z,102051.00
2023-02-14T19:31:48.505Z,102065.81
2023-02-14T19:34:22.578Z,102055.03
2023-02-14T19:36:52.738Z,102062.44
2023-02-14T19:39:21.157Z,102056.59
2023-02-14T19:41:49.240Z,102056.25
2023-02-14T19:44:18.269Z,102058.34
2023-02-14T19:46:46.522Z,102068.09
2023-02-14T19:49:16.582Z,102051.78
2023-02-14T19:51:45.360Z,102073.94
2023-02-14T19:54:13.029Z,102069.03
2023-02-14T19:56:43.663Z,102063.84
2023-02-14T19:59:14.463Z,102069.03
2023-02-14T20:01:44.369Z,102067.00
2023-02-14T20:04:14.920Z,102054.44
2023-02-14T20:06:43.101Z,102065.72
2023-02-14T20:09:11.460Z,102057.19
2023-02-14T20:11:51.329Z,102057.31
2023-02-14T20:14:20.525Z,102057.06
2023-02-14T20:16:48.811Z,102052.97
2023-02-14T20:19:18.717Z,102043.31
2023-02-14T20:21:49.257Z,102050.16
2023-02-14T20:24:23.278Z,102057.78
2023-02-14T20:26:51.847Z,102051.84
2023-02-14T20:29:19.957Z,102051.84
2023-02-14T20:31:50.173Z,102058.34
2023-02-14T20:34:18.516Z,102067.81
2023-02-14T20:36:53.013Z,102066.72
2023-02-14T20:39:22.487Z,102072.97
2023-02-14T20:41:50.384Z,102069.59
2023-02-14T20:44:21.393Z,102060.66
2023-02-14T20:46:51.769Z,102053.69
2023-02-14T20:49:20.669Z,102053.53
2023-02-14T20:51:49.809Z,102053.69
2023-02-14T20:54:21.468Z,102055.16
2023-02-14T20:56:50.774Z,102062.47
2023-02-14T20:59:28.712Z,102051.84
2023-02-14T21:01:58.593Z,102038.56
2023-02-14T21:04:26.239Z,102041.88
2023-02-14T21:06:53.881Z,102042.72
2023-02-14T21:09:21.238Z,102054.59
2023-02-14T21:11:49.667Z,102045.06
2023-02-14T21:14:17.467Z,102047.47
2023-02-14T21:16:45.053Z,102043.91
2023-02-14T21:19:12.303Z,102042.78
2023-02-14T21:21:40.123Z,102038.03
2023-02-14T21:24:13.208Z,102044.34
2023-02-14T21:26:41.706Z,102046.63
2023-02-14T21:29:09.823Z,102051.78
2023-02-14T21:31:37.872Z,102045.06
2023-02-14T21:34:05.643Z,102048.91
2023-02-14T21:36:38.014Z,102034.59
2023-02-14T21:39:07.252Z,102041.03
2023-02-14T21:41:36.640Z,102039.72
2023-02-14T21:44:05.030Z,102030.88
2023-02-14T21:46:38.398Z,102025.97
2023-02-14T21:49:25.275Z,102035.34
2023-02-14T21:51:52.973Z,102029.88
2023-02-14T21:54:20.293Z,102034.81
2023-02-14T21:56:49.869Z,102031.31
2023-02-14T21:59:17.398Z,102041.22
2023-02-14T22:01:44.983Z,102023.97
2023-02-14T22:04:13.316Z,102029.56
2023-02-14T22:06:42.424Z,102036.66
2023-02-14T22:09:12.473Z,102048.84
2023-02-14T22:11:40.723Z,102039.56
2023-02-14T22:14:08.423Z,102034.16
2023-02-14T22:16:37.036Z,102043.34
2023-02-14T22:19:05.479Z,102043.28
2023-02-14T22:21:33.625Z,102035.81
2023-02-14T22:24:01.479Z,102035.03
2023-02-14T22:26:31.559Z,102028.38
2023-02-14T22:29:00.692Z,102039.41
2023-02-14T22:31:33.474Z,102031.75
2023-02-14T22:34:00.810Z,102024.09
2023-02-14T22:36:28.352Z,102031.97
2023-02-14T22:38:55.650Z,102034.69
2023-02-14T22:41:24.624Z,102026.84
2023-02-14T22:43:53.411Z,102035.25
2023-02-14T22:46:26.897Z,102031.84
2023-02-14T22:48:55.098Z,102019.13
2023-02-14T22:51:49.083Z,102030.75
2023-02-14T22:54:16.692Z,102029.81
2023-02-14T22:56:46.825Z,102016.88
2023-02-14T22:59:17.123Z,102029.88
2023-02-14T23:01:45.790Z,102023.88
2023-02-14T23:04:14.877Z,102024.53
2023-02-14T23:06:42.671Z,102027.66
2023-02-14T23:09:11.314Z,102019.84
2023-02-14T23:11:40.384Z,102026.63
2023-02-14T23:14:27.008Z,102029.31
2023-02-14T23:17:06.595Z,102028.63
2023-02-14T23:19:53.884Z,102014.56
2023-02-14T23:22:25.826Z,102019.84
2023-02-14T23:24:58.058Z,102021.91
2023-02-14T23:27:37.387Z,102006.22
2023-02-14T23:30:06.885Z,102013.84
2023-02-14T23:32:34.652Z,101998.59
2023-02-14T23:35:02.131Z,102010.25
2023-02-14T23:37:29.669Z,102006.56
2023-02-14T23:39:56.962Z,102007.44
2023-02-14T23:42:24.589Z,101993.66
2023-02-14T23:44:51.842Z,102009.69
2023-02-14T23:47:19.433Z,102004.16
2023-02-14T23:49:46.647Z,102006.75
2023-02-14T23:52:14.757Z,101997.97
2023-02-14T23:54:41.997Z,101996.38
2023-02-14T23:57:09.709Z,101992.75
2023-02-14T23:59:37.000Z,101987.47
